Pernitas Point, Texas
Current Conditions -  °F | °C
As of 10:56 PM on Monday 20 Oct 2014 (Local Time) from KNOG Reporting Station
Clear Clear  
Wind Chill: 71°   Ceiling: Unl
Heat Index: 71°   Visibility: 10mi
Dew Point: 69°   Wind: 6mph
Humidity: 93%   Direction: 60°ENE
Pressure: 30"   Gusts: NA
Location:  28.0605°N, 97.9438°W
Report Text: KNOG 210356Z AUTO 06005KT 10SM CLR 22/21 A3000 RMK AO2 SLP140 T02170206
Loading
Personal Weather Stations






























Interactive Weather Map
Tropical Storm Tracking
New forecast layout! Learn more

10-Day Weather Forecast

Advertisements
Track Severe Weather on mobile